Yorkshire, Pennsylvania
Current Conditions -  °F | °C
As of 8:53 AM on Friday 31 Oct 2014 (Local Time) from KTHV Reporting Station
Overcast Overcast  
Wind Chill: 44°   Ceiling: 5500
Heat Index: 47°   Visibility: 10mi
Dew Point: 38°   Wind: 6mph
Humidity: 71%   Direction: 80°E
Pressure: 30"   Gusts: NA
Location:  39.9768°N, 76.6853°W
Report Text: KTHV 311253Z AUTO 08005KT 10SM OVC055 08/03 A3000 RMK AO2 SLP164 T00830033 $
Loading
Personal Weather Stations






























Interactive Weather Map
Tropical Storm Tracking
New forecast layout! Learn more

10-Day Weather Forecast

Advertisements
Track Severe Weather on mobile